Time,TemperatureF,DewpointF,PressureIn,WindDirection,WindDirectionDegrees,WindSpeedMPH,WindSpeedGustMPH,Humidity,HourlyPrecipIn,Conditions,Clouds,dailyrainin,SolarRadiationWatts/m^2,SoftwareType,DateUTC
2013-09-13 00:00:00,71.3,69.8,29.96,WSW,248,0.0,0.0,95,0.00,,,0.00,0,Wunderground v.1.15,2013-09-13 10:00:00,
2013-09-13 00:10:00,71.1,69.6,29.95,WNW,296,1.0,1.0,95,0.00,,,0.00,0,Wunderground v.1.15,2013-09-13 10:10:00,
2013-09-13 00:20:00,70.4,69.2,29.95,WNW,296,0.0,0.0,96,0.00,,,0.00,0,Wunderground v.1.15,2013-09-13 10:20:00,
2013-09-13 00:25:00,70.2,69.0,29.95,WNW,296,0.0,0.0,96,0.00,,,0.00,0,Wunderground v.1.15,2013-09-13 10:25:00,
2013-09-13 00:30:00,69.8,68.6,29.95,WNW,296,0.0,0.0,96,0.00,,,0.00,0,Wunderground v.1.15,2013-09-13 10:30:00,
2013-09-13 00:35:00,69.7,68.8,29.95,WNW,296,0.0,0.0,97,0.00,,,0.00,0,Wunderground v.1.15,2013-09-13 10:35:00,
2013-09-13 00:40:00,69.6,68.7,29.95,WNW,296,0.0,0.0,97,0.00,,,0.00,0,Wunderground v.1.15,2013-09-13 10:40:00,
2013-09-13 00:45:00,69.5,68.6,29.95,WNW,296,0.0,0.0,97,0.00,,,0.00,0,Wunderground v.1.15,2013-09-13 10:45:00,
2013-09-13 00:50:00,69.4,68.5,29.95,WNW,296,0.0,0.0,97,0.00,,,0.00,0,Wunderground v.1.15,2013-09-13 10:50:00,
2013-09-13 00:55:00,69.4,68.5,29.95,WNW,296,0.0,0.0,97,0.00,,,0.00,0,Wunderground v.1.15,2013-09-13 10:55:00,
2013-09-13 01:00:00,69.5,68.6,29.95,WNW,296,0.0,0.0,97,0.00,,,0.00,0,Wunderground v.1.15,2013-09-13 11:00:00,
2013-09-13 01:10:00,69.7,68.8,29.95,WNW,296,0.0,0.0,97,0.00,,,0.00,0,Wunderground v.1.15,2013-09-13 11:10:00,
2013-09-13 01:15:00,69.9,69.0,29.95,WNW,296,0.0,0.0,97,0.00,,,0.00,0,Wunderground v.1.15,2013-09-13 11:15:00,
2013-09-13 01:20:00,70.1,69.2,29.95,WNW,296,0.0,0.0,97,0.00,,,0.00,0,Wunderground v.1.15,2013-09-13 11:20:00,
2013-09-13 01:30:00,70.3,69.1,29.94,WNW,298,1.0,1.0,96,0.00,,,0.00,0,Wunderground v.1.15,2013-09-13 11:30:00,
2013-09-13 01:35:00,70.3,69.1,29.94,WNW,298,0.0,1.0,96,0.00,,,0.00,0,Wunderground v.1.15,2013-09-13 11:35:00,
2013-09-13 01:40:00,70.1,68.9,29.94,WNW,298,0.0,0.0,96,0.00,,,0.00,0,Wunderground v.1.15,2013-09-13 11:40:00,
2013-09-13 01:45:00,70.1,68.9,29.94,WNW,298,0.0,0.0,96,0.00,,,0.00,0,Wunderground v.1.15,2013-09-13 11:45:00,
2013-09-13 01:50:00,70.0,68.8,29.94,WNW,298,0.0,0.0,96,0.00,,,0.00,0,Wunderground v.1.15,2013-09-13 11:50:00,
2013-09-13 01:55:00,69.8,68.6,29.94,WNW,298,0.0,0.0,96,0.00,,,0.00,0,Wunderground v.1.15,2013-09-13 11:55:00,
2013-09-13 02:00:00,69.7,68.5,29.94,WNW,297,0.0,0.0,96,0.00,,,0.00,0,Wunderground v.1.15,2013-09-13 12:00:00,
2013-09-13 02:10:00,69.4,68.5,29.93,WNW,298,0.0,0.0,97,0.00,,,0.00,0,Wunderground v.1.15,2013-09-13 12:10:00,
2013-09-13 02:15:00,69.3,68.4,29.93,WNW,298,0.0,0.0,97,0.00,,,0.00,0,Wunderground v.1.15,2013-09-13 12:15:00,
2013-09-13 02:20:00,69.1,68.2,29.93,WNW,298,0.0,0.0,97,0.00,,,0.00,0,Wunderground v.1.15,2013-09-13 12:20:00,
2013-09-13 02:25:00,69.1,68.2,29.93,WNW,297,0.0,0.0,97,0.00,,,0.00,0,Wunderground v.1.15,2013-09-13 12:25:00,
2013-09-13 02:30:00,69.2,68.3,29.92,WNW,298,0.0,0.0,97,0.00,,,0.00,0,Wunderground v.1.15,2013-09-13 12:30:00,
2013-09-13 02:35:00,69.3,68.4,29.93,WNW,298,0.0,0.0,97,0.00,,,0.00,0,Wunderground v.1.15,2013-09-13 12:35:00,
2013-09-13 02:40:00,69.2,68.3,29.92,WNW,298,0.0,0.0,97,0.00,,,0.00,0,Wunderground v.1.15,2013-09-13 12:40:00,
2013-09-13 02:45:00,69.3,68.4,29.92,WNW,298,0.0,0.0,97,0.00,,,0.00,0,Wunderground v.1.15,2013-09-13 12:45:00,
2013-09-13 02:50:00,69.3,68.1,29.92,WNW,298,0.0,0.0,96,0.00,,,0.00,0,Wunderground v.1.15,2013-09-13 12:50:00,
2013-09-13 03:00:00,69.2,68.0,29.92,NNE,12,0.0,4.0,96,0.00,,,0.00,0,Wunderground v.1.15,2013-09-13 13:00:00,
2013-09-13 03:10:00,68.9,68.0,29.92,North,9,0.0,0.0,97,0.00,,,0.00,0,Wunderground v.1.15,2013-09-13 13:10:00,
2013-09-13 03:15:00,68.8,67.9,29.92,North,9,0.0,0.0,97,0.00,,,0.00,0,Wunderground v.1.15,2013-09-13 13:15:00,
2013-09-13 03:20:00,68.8,67.9,29.92,North,9,0.0,0.0,97,0.00,,,0.00,0,Wunderground v.1.15,2013-09-13 13:20:00,
2013-09-13 03:25:00,68.7,67.8,29.92,North,9,0.0,0.0,97,0.00,,,0.00,0,Wunderground v.1.15,2013-09-13 13:25:00,
2013-09-13 03:35:00,68.9,68.0,29.92,NNW,342,0.0,0.0,97,0.00,,,0.00,0,Wunderground v.1.15,2013-09-13 13:35:00,
2013-09-13 03:40:00,69.1,68.2,29.92,NW,315,0.0,5.0,97,0.00,,,0.00,0,Wunderground v.1.15,2013-09-13 13:40:00,
2013-09-13 03:45:00,69.6,68.4,29.92,NW,316,1.0,5.0,96,0.00,,,0.00,0,Wunderground v.1.15,2013-09-13 13:45:00,
2013-09-13 03:50:00,70.0,68.8,29.92,NW,316,1.0,1.0,96,0.00,,,0.00,0,Wunderground v.1.15,2013-09-13 13:50:00,
2013-09-13 03:55:00,69.6,68.1,29.92,NW,316,0.0,1.0,95,0.00,,,0.00,0,Wunderground v.1.15,2013-09-13 13:55:00,
2013-09-13 04:00:00,69.2,68.0,29.92,NW,316,0.0,0.0,96,0.00,,,0.00,0,Wunderground v.1.15,2013-09-13 14:00:00,
2013-09-13 04:10:00,69.0,67.8,29.92,NW,316,0.0,0.0,96,0.00,,,0.00,0,Wunderground v.1.15,2013-09-13 14:10:00,
2013-09-13 04:15:00,68.9,67.7,29.92,NW,316,0.0,0.0,96,0.00,,,0.00,0,Wunderground v.1.15,2013-09-13 14:15:00,
2013-09-13 04:25:00,69.0,68.1,29.92,NW,316,0.0,0.0,97,0.00,,,0.00,0,Wunderground v.1.15,2013-09-13 14:25:00,
2013-09-13 04:30:00,69.2,68.3,29.92,NW,316,0.0,0.0,97,0.00,,,0.00,0,Wunderground v.1.15,2013-09-13 14:30:00,
2013-09-13 04:35:00,69.5,68.3,29.92,NW,316,0.0,0.0,96,0.00,,,0.00,0,Wunderground v.1.15,2013-09-13 14:35:00,
2013-09-13 04:40:00,69.6,68.4,29.92,NW,315,0.0,0.0,96,0.00,,,0.00,0,Wunderground v.1.15,2013-09-13 14:40:00,
2013-09-13 04:50:00,70.2,68.4,29.93,NW,315,0.0,0.0,94,0.00,,,0.00,0,Wunderground v.1.15,2013-09-13 14:50:00,
2013-09-13 04:55:00,70.2,68.4,29.93,NW,315,0.0,0.0,94,0.00,,,0.00,0,Wunderground v.1.15,2013-09-13 14:55:00,
2013-09-13 05:00:00,70.2,68.4,29.93,NW,315,0.0,0.0,94,0.00,,,0.00,0,Wunderground v.1.15,2013-09-13 15:00:00,
2013-09-13 05:10:00,70.1,68.3,29.93,NW,315,0.0,0.0,94,0.00,,,0.00,0,Wunderground v.1.15,2013-09-13 15:10:00,
2013-09-13 05:15:00,69.9,68.1,29.93,NW,316,0.0,0.0,94,0.00,,,0.00,0,Wunderground v.1.15,2013-09-13 15:15:00,
2013-09-13 05:20:00,69.8,68.0,29.93,NW,316,0.0,0.0,94,0.00,,,0.00,0,Wunderground v.1.15,2013-09-13 15:20:00,
2013-09-13 05:25:00,69.8,68.0,29.93,NW,317,0.0,4.0,94,0.00,,,0.00,0,Wunderground v.1.15,2013-09-13 15:25:00,
2013-09-13 05:30:00,69.9,68.1,29.93,NW,317,0.0,0.0,94,0.00,,,0.00,0,Wunderground v.1.15,2013-09-13 15:30:00,
2013-09-13 05:35:00,69.6,67.8,29.93,NW,319,1.0,1.0,94,0.00,,,0.00,0,Wunderground v.1.15,2013-09-13 15:35:00,
2013-09-13 05:40:00,69.3,67.8,29.94,NW,319,1.0,1.0,95,0.00,,,0.00,0,Wunderground v.1.15,2013-09-13 15:40:00,
2013-09-13 05:45:00,69.0,67.5,29.94,NW,319,0.0,1.0,95,0.00,,,0.00,0,Wunderground v.1.15,2013-09-13 15:45:00,
2013-09-13 05:55:00,68.6,67.4,29.94,NW,319,0.0,0.0,96,0.00,,,0.00,0,Wunderground v.1.15,2013-09-13 15:55:00,
2013-09-13 06:00:00,68.4,67.2,29.95,NW,319,0.0,0.0,96,0.00,,,0.00,0,Wunderground v.1.15,2013-09-13 16:00:00,
2013-09-13 06:10:00,68.0,67.1,29.95,NW,319,0.0,0.0,97,0.00,,,0.00,0,Wunderground v.1.15,2013-09-13 16:10:00,
2013-09-13 06:15:00,67.8,66.9,29.95,NW,319,0.0,0.0,97,0.00,,,0.00,7,Wunderground v.1.15,2013-09-13 16:15:00,
2013-09-13 06:20:00,67.8,66.9,29.95,NW,319,0.0,0.0,97,0.00,,,0.00,11,Wunderground v.1.15,2013-09-13 16:20:00,
2013-09-13 06:25:00,68.0,67.1,29.95,NW,319,0.0,0.0,97,0.00,,,0.00,18,Wunderground v.1.15,2013-09-13 16:25:00,
2013-09-13 06:30:00,68.1,67.2,29.95,NW,319,0.0,0.0,97,0.00,,,0.00,21,Wunderground v.1.15,2013-09-13 16:30:00,
2013-09-13 06:35:00,68.3,67.4,29.95,NW,319,0.0,0.0,97,0.00,,,0.00,30,Wunderground v.1.15,2013-09-13 16:35:00,
2013-09-13 06:40:00,68.8,68.2,29.95,NW,319,0.0,0.0,98,0.00,,,0.00,44,Wunderground v.1.15,2013-09-13 16:40:00,
2013-09-13 06:50:00,69.9,69.0,29.95,NW,319,0.0,0.0,97,0.00,,,0.00,74,Wunderground v.1.15,2013-09-13 16:50:00,
2013-09-13 07:00:00,71.1,69.9,29.95,NW,319,0.0,0.0,96,0.00,,,0.00,113,Wunderground v.1.15,2013-09-13 17:00:00,
2013-09-13 07:10:00,72.5,70.4,29.96,NW,319,0.0,0.0,93,0.00,,,0.00,156,Wunderground v.1.15,2013-09-13 17:10:00,
2013-09-13 07:15:00,73.3,70.8,29.96,NW,319,0.0,0.0,92,0.00,,,0.00,188,Wunderground v.1.15,2013-09-13 17:15:00,
2013-09-13 07:20:00,74.0,71.5,29.96,NW,319,0.0,0.0,92,0.00,,,0.00,186,Wunderground v.1.15,2013-09-13 17:20:00,
2013-09-13 07:25:00,74.5,72.0,29.96,NW,319,0.0,0.0,92,0.00,,,0.00,223,Wunderground v.1.15,2013-09-13 17:25:00,
2013-09-13 07:30:00,74.8,72.0,29.96,NW,319,0.0,0.0,91,0.00,,,0.00,248,Wunderground v.1.15,2013-09-13 17:30:00,
2013-09-13 07:35:00,75.1,72.3,29.96,NW,319,0.0,0.0,91,0.00,,,0.00,76,Wunderground v.1.15,2013-09-13 17:35:00,
2013-09-13 07:40:00,75.3,72.2,29.96,NW,319,0.0,0.0,90,0.00,,,0.00,267,Wunderground v.1.15,2013-09-13 17:40:00,
2013-09-13 07:50:00,75.8,72.7,29.96,NW,319,0.0,0.0,90,0.00,,,0.00,295,Wunderground v.1.15,2013-09-13 17:50:00,
2013-09-13 07:55:00,76.0,72.5,29.96,West,263,0.0,4.0,89,0.00,,,0.00,338,Wunderground v.1.15,2013-09-13 17:55:00,
2013-09-13 08:00:00,76.4,72.9,29.97,West,263,0.0,0.0,89,0.00,,,0.00,360,Wunderground v.1.15,2013-09-13 18:00:00,
2013-09-13 08:10:00,76.9,72.0,29.97,West,264,1.0,3.0,85,0.00,,,0.00,163,Wunderground v.1.15,2013-09-13 18:10:00,
2013-09-13 08:20:00,77.3,72.1,29.97,SSW,209,0.0,0.0,84,0.00,,,0.00,160,Wunderground v.1.15,2013-09-13 18:20:00,
2013-09-13 08:25:00,77.7,72.5,29.97,South,173,0.0,0.0,84,0.00,,,0.00,617,Wunderground v.1.15,2013-09-13 18:25:00,
2013-09-13 08:30:00,78.6,73.4,29.97,SSE,164,0.0,3.0,84,0.00,,,0.00,633,Wunderground v.1.15,2013-09-13 18:30:00,
2013-09-13 08:35:00,79.2,73.2,29.97,ENE,76,3.0,11.0,82,0.00,,,0.00,631,Wunderground v.1.15,2013-09-13 18:35:00,
2013-09-13 08:40:00,79.6,73.6,29.97,ESE,114,5.0,5.0,82,0.00,,,0.00,680,Wunderground v.1.15,2013-09-13 18:40:00,
2013-09-13 08:45:00,80.0,74.0,29.97,ESE,112,4.0,5.0,82,0.00,,,0.00,677,Wunderground v.1.15,2013-09-13 18:45:00,
2013-09-13 08:55:00,80.9,74.5,29.97,ESE,110,4.0,9.0,81,0.00,,,0.00,708,Wunderground v.1.15,2013-09-13 18:55:00,
2013-09-13 09:00:00,80.6,74.2,29.97,South,180,6.0,6.0,81,0.00,,,0.00,694,Wunderground v.1.15,2013-09-13 19:00:00,
2013-09-13 09:10:00,80.1,74.5,29.97,SE,137,6.0,6.0,83,0.00,,,0.00,664,Wunderground v.1.15,2013-09-13 19:10:00,
2013-09-13 09:15:00,80.1,74.1,29.96,ESE,119,8.0,13.0,82,0.00,,,0.00,721,Wunderground v.1.15,2013-09-13 19:15:00,
2013-09-13 09:20:00,80.3,74.7,29.97,ESE,121,8.0,12.0,83,0.00,,,0.00,759,Wunderground v.1.15,2013-09-13 19:20:00,
2013-09-13 09:25:00,80.6,75.0,29.97,SSE,156,7.0,12.0,83,0.00,,,0.00,724,Wunderground v.1.15,2013-09-13 19:25:00,
2013-09-13 09:30:00,80.4,74.8,29.97,SE,138,9.0,9.0,83,0.00,,,0.00,812,Wunderground v.1.15,2013-09-13 19:30:00,
2013-09-13 09:35:00,80.4,74.8,29.96,East,93,10.0,10.0,83,0.00,,,0.00,800,Wunderground v.1.15,2013-09-13 19:35:00,
2013-09-13 09:40:00,80.7,74.7,29.96,SE,143,8.0,11.0,82,0.00,,,0.00,779,Wunderground v.1.15,2013-09-13 19:40:00,
2013-09-13 09:45:00,80.7,74.3,29.96,SE,132,8.0,11.0,81,0.00,,,0.00,751,Wunderground v.1.15,2013-09-13 19:45:00,
2013-09-13 09:55:00,80.9,74.9,29.96,ESE,108,10.0,15.0,82,0.00,,,0.00,911,Wunderground v.1.15,2013-09-13 19:55:00,
2013-09-13 10:00:00,81.1,74.7,29.96,ESE,117,11.0,11.0,81,0.00,,,0.00,909,Wunderground v.1.15,2013-09-13 20:00:00,
2013-09-13 10:10:00,81.1,75.1,29.96,SE,130,10.0,10.0,82,0.00,,,0.00,1046,Wunderground v.1.15,2013-09-13 20:10:00,
2013-09-13 10:15:00,81.3,75.3,29.95,SE,126,10.0,10.0,82,0.00,,,0.00,1046,Wunderground v.1.15,2013-09-13 20:15:00,
2013-09-13 10:20:00,82.0,75.6,29.95,ESE,102,10.0,10.0,81,0.00,,,0.00,838,Wunderground v.1.15,2013-09-13 20:20:00,
2013-09-13 10:25:00,82.3,75.5,29.95,SE,134,9.0,14.0,80,0.00,,,0.00,1139,Wunderground v.1.15,2013-09-13 20:25:00,
2013-09-13 10:30:00,82.1,75.7,29.95,SE,142,10.0,11.0,81,0.00,,,0.00,1139,Wunderground v.1.15,2013-09-13 20:30:00,
2013-09-13 10:35:00,81.6,75.6,29.95,SE,130,11.0,13.0,82,0.00,,,0.00,1202,Wunderground v.1.15,2013-09-13 20:35:00,
2013-09-13 10:45:00,80.9,74.1,29.95,SE,140,10.0,12.0,80,0.00,,,0.00,439,Wunderground v.1.15,2013-09-13 20:45:00,
2013-09-13 10:50:00,80.3,73.9,29.95,ESE,111,10.0,10.0,81,0.00,,,0.00,339,Wunderground v.1.15,2013-09-13 20:50:00,
2013-09-13 10:55:00,80.3,73.9,29.95,ESE,116,11.0,11.0,81,0.00,,,0.00,387,Wunderground v.1.15,2013-09-13 20:55:00,
2013-09-13 11:00:00,80.4,74.4,29.95,ESE,107,9.0,11.0,82,0.00,,,0.00,584,Wunderground v.1.15,2013-09-13 21:00:00,
2013-09-13 11:10:00,80.7,74.0,29.95,SE,138,7.0,7.0,80,0.00,,,0.00,411,Wunderground v.1.15,2013-09-13 21:10:00,
2013-09-13 11:15:00,80.7,74.0,29.95,East,84,7.0,7.0,80,0.00,,,0.00,294,Wunderground v.1.15,2013-09-13 21:15:00,
2013-09-13 11:20:00,80.8,73.7,29.95,SE,143,6.0,12.0,79,0.00,,,0.00,213,Wunderground v.1.15,2013-09-13 21:20:00,
2013-09-13 11:25:00,80.2,73.5,29.95,SE,136,7.0,12.0,80,0.00,,,0.00,197,Wunderground v.1.15,2013-09-13 21:25:00,
2013-09-13 11:30:00,80.0,74.0,29.95,SE,129,7.0,7.0,82,0.00,,,0.00,202,Wunderground v.1.15,2013-09-13 21:30:00,
2013-09-13 11:35:00,79.7,73.3,29.95,ESE,123,6.0,7.0,81,0.00,,,0.00,204,Wunderground v.1.15,2013-09-13 21:35:00,
2013-09-13 11:40:00,79.4,73.8,29.95,SE,145,6.0,9.0,83,0.00,,,0.00,202,Wunderground v.1.15,2013-09-13 21:40:00,
2013-09-13 11:45:00,79.2,73.6,29.94,SE,136,6.0,9.0,83,0.00,,,0.00,206,Wunderground v.1.15,2013-09-13 21:45:00,
2013-09-13 11:55:00,79.3,73.7,29.94,East,82,4.0,11.0,83,0.00,,,0.00,171,Wunderground v.1.15,2013-09-13 21:55:00,
2013-09-13 12:00:00,79.3,73.0,29.94,East,92,5.0,9.0,81,0.00,,,0.00,165,Wunderground v.1.15,2013-09-13 22:00:00,
2013-09-13 12:10:00,79.1,72.4,29.93,SE,139,5.0,5.0,80,0.00,,,0.00,162,Wunderground v.1.15,2013-09-13 22:10:00,
2013-09-13 12:20:00,78.7,72.4,29.94,SE,142,5.0,5.0,81,0.00,,,0.00,202,Wunderground v.1.15,2013-09-13 22:20:00,
2013-09-13 12:25:00,78.6,72.3,29.94,East,81,4.0,5.0,81,0.00,,,0.00,206,Wunderground v.1.15,2013-09-13 22:25:00,
2013-09-13 12:30:00,78.7,72.7,29.94,SE,124,3.0,3.0,82,0.00,,,0.00,155,Wunderground v.1.15,2013-09-13 22:30:00,
2013-09-13 12:35:00,78.7,72.7,29.93,East,86,4.0,4.0,82,0.00,,,0.00,134,Wunderground v.1.15,2013-09-13 22:35:00,
2013-09-13 12:40:00,78.4,73.2,29.93,SE,140,4.0,6.0,84,0.00,,,0.00,148,Wunderground v.1.15,2013-09-13 22:40:00,
2013-09-13 12:50:00,78.0,73.1,29.93,SE,138,4.0,7.0,85,0.00,,,0.00,135,Wunderground v.1.15,2013-09-13 22:50:00,
2013-09-13 12:55:00,77.8,73.3,29.93,SE,132,3.0,7.0,86,0.00,,,0.00,116,Wunderground v.1.15,2013-09-13 22:55:00,
2013-09-13 13:00:00,77.6,73.4,29.93,SE,125,2.0,7.0,87,0.00,,,0.00,83,Wunderground v.1.15,2013-09-13 23:00:00,
2013-09-13 13:10:00,76.9,73.1,29.93,SSE,157,3.0,3.0,88,0.00,,,0.00,158,Wunderground v.1.15,2013-09-13 23:10:00,
2013-09-13 13:15:00,76.9,73.4,29.92,SSE,159,2.0,5.0,89,0.00,,,0.00,174,Wunderground v.1.15,2013-09-13 23:15:00,
2013-09-13 13:25:00,77.0,73.5,29.92,SE,144,3.0,4.0,89,0.00,,,0.00,142,Wunderground v.1.15,2013-09-13 23:25:00,
2013-09-13 13:30:00,77.0,73.5,29.92,SSE,156,3.0,3.0,89,0.00,,,0.00,102,Wunderground v.1.15,2013-09-13 23:30:00,
2013-09-13 13:35:00,77.0,73.5,29.92,SSE,150,2.0,3.0,89,0.00,,,0.00,114,Wunderground v.1.15,2013-09-13 23:35:00,
2013-09-13 13:45:00,76.6,73.4,29.91,ESE,115,3.0,6.0,90,0.00,,,0.00,151,Wunderground v.1.15,2013-09-13 23:45:00,
2013-09-13 13:50:00,76.5,73.7,29.91,SSE,164,4.0,4.0,91,0.00,,,0.00,144,Wunderground v.1.15,2013-09-13 23:50:00,
2013-09-13 13:55:00,76.5,73.7,29.90,SSE,160,3.0,4.0,91,0.00,,,0.00,139,Wunderground v.1.15,2013-09-13 23:55:00,
2013-09-13 14:00:00,76.6,73.8,29.91,SE,134,3.0,3.0,91,0.00,,,0.00,83,Wunderground v.1.15,2013-09-14 00:00:00,
2013-09-13 14:10:00,76.4,73.6,29.91,SE,136,3.0,5.0,91,0.00,,,0.00,102,Wunderground v.1.15,2013-09-14 00:10:00,
2013-09-13 14:15:00,76.3,73.5,29.91,SE,136,2.0,5.0,91,0.00,,,0.00,105,Wunderground v.1.15,2013-09-14 00:15:00,
2013-09-13 14:20:00,76.1,73.6,29.91,SE,137,3.0,4.0,92,0.00,,,0.00,86,Wunderground v.1.15,2013-09-14 00:20:00,
2013-09-13 14:25:00,75.8,73.6,29.91,SE,137,3.0,4.0,93,0.00,,,0.00,81,Wunderground v.1.15,2013-09-14 00:25:00,
2013-09-13 14:30:00,75.7,73.8,29.90,SE,137,1.0,1.0,94,0.00,,,0.00,62,Wunderground v.1.15,2013-09-14 00:30:00,
2013-09-13 14:40:00,75.6,73.8,29.90,SE,137,0.0,0.0,94,0.00,,,0.00,98,Wunderground v.1.15,2013-09-14 00:40:00,
2013-09-13 14:50:00,75.6,73.8,29.90,SE,137,0.0,0.0,94,0.00,,,0.00,206,Wunderground v.1.15,2013-09-14 00:50:00,
2013-09-13 14:55:00,75.5,73.7,29.90,SE,137,0.0,0.0,94,0.00,,,0.00,139,Wunderground v.1.15,2013-09-14 00:55:00,
2013-09-13 15:00:00,75.4,73.2,29.90,SE,137,1.0,2.0,93,0.00,,,0.00,104,Wunderground v.1.15,2013-09-14 01:00:00,
2013-09-13 15:10:00,75.9,74.0,29.90,SE,136,1.0,5.0,94,0.00,,,0.00,253,Wunderground v.1.15,2013-09-14 01:10:00,
2013-09-13 15:20:00,76.1,73.9,29.90,SE,136,2.0,2.0,93,0.00,,,0.00,186,Wunderground v.1.15,2013-09-14 01:20:00,
2013-09-13 15:25:00,76.3,74.1,29.90,SE,137,1.0,3.0,93,0.00,,,0.00,171,Wunderground v.1.15,2013-09-14 01:25:00,
2013-09-13 15:30:00,76.2,74.0,29.90,SE,137,2.0,2.0,93,0.00,,,0.00,165,Wunderground v.1.15,2013-09-14 01:30:00,
2013-09-13 15:35:00,76.2,74.0,29.90,SE,137,3.0,3.0,93,0.00,,,0.00,120,Wunderground v.1.15,2013-09-14 01:35:00,
2013-09-13 15:40:00,76.1,73.6,29.90,SE,136,3.0,4.0,92,0.00,,,0.00,107,Wunderground v.1.15,2013-09-14 01:40:00,
2013-09-13 15:45:00,76.1,73.9,29.90,SE,136,3.0,5.0,93,0.00,,,0.00,132,Wunderground v.1.15,2013-09-14 01:45:00,
2013-09-13 15:55:00,75.9,73.7,29.90,ENE,78,2.0,3.0,93,0.00,,,0.00,95,Wunderground v.1.15,2013-09-14 01:55:00,
2013-09-13 16:00:00,75.9,73.7,29.90,East,101,1.0,4.0,93,0.00,,,0.00,76,Wunderground v.1.15,2013-09-14 02:00:00,
2013-09-13 16:10:00,75.7,73.2,29.91,SE,128,4.0,4.0,92,0.00,,,0.00,125,Wunderground v.1.15,2013-09-14 02:10:00,
2013-09-13 16:15:00,75.9,73.7,29.90,SE,128,4.0,4.0,93,0.00,,,0.00,90,Wunderground v.1.15,2013-09-14 02:15:00,
2013-09-13 16:25:00,75.8,73.6,29.91,SE,129,3.0,4.0,93,0.00,,,0.00,63,Wunderground v.1.15,2013-09-14 02:25:00,
2013-09-13 16:30:00,75.8,73.9,29.91,SE,129,2.0,2.0,94,0.00,,,0.00,69,Wunderground v.1.15,2013-09-14 02:30:00,
2013-09-13 16:35:00,75.7,73.8,29.91,SE,129,1.0,3.0,94,0.00,,,0.00,39,Wunderground v.1.15,2013-09-14 02:35:00,
2013-09-13 16:40:00,75.6,73.8,29.91,ESE,114,2.0,3.0,94,0.00,,,0.00,63,Wunderground v.1.15,2013-09-14 02:40:00,
2013-09-13 16:45:00,75.5,73.7,29.91,ESE,113,3.0,3.0,94,0.00,,,0.00,98,Wunderground v.1.15,2013-09-14 02:45:00,
2013-09-13 16:50:00,75.4,73.6,29.91,ESE,109,1.0,1.0,94,0.00,,,0.00,113,Wunderground v.1.15,2013-09-14 02:50:00,
2013-09-13 16:55:00,75.2,73.4,29.91,ESE,106,0.0,1.0,94,0.00,,,0.00,100,Wunderground v.1.15,2013-09-14 02:55:00,
2013-09-13 17:00:00,75.3,73.5,29.91,ESE,106,0.0,0.0,94,0.00,,,0.00,60,Wunderground v.1.15,2013-09-14 03:00:00,
2013-09-13 17:10:00,75.4,73.6,29.91,NE,44,0.0,0.0,94,0.00,,,0.00,46,Wunderground v.1.15,2013-09-14 03:10:00,
2013-09-13 17:20:00,75.4,73.6,29.91,NE,45,0.0,0.0,94,0.00,,,0.00,30,Wunderground v.1.15,2013-09-14 03:20:00,
2013-09-13 17:30:00,75.5,73.7,29.91,NE,45,0.0,0.0,94,0.00,,,0.00,39,Wunderground v.1.15,2013-09-14 03:30:00,
2013-09-13 17:35:00,75.5,73.7,29.91,NE,45,0.0,0.0,94,0.00,,,0.00,30,Wunderground v.1.15,2013-09-14 03:35:00,
2013-09-13 17:40:00,75.5,73.7,29.91,NE,45,0.0,0.0,94,0.00,,,0.00,14,Wunderground v.1.15,2013-09-14 03:40:00,
2013-09-13 17:45:00,75.4,73.2,29.92,NE,46,0.0,0.0,93,0.00,,,0.00,14,Wunderground v.1.15,2013-09-14 03:45:00,
2013-09-13 17:50:00,75.5,73.3,29.92,NE,46,0.0,0.0,93,0.00,,,0.00,18,Wunderground v.1.15,2013-09-14 03:50:00,
2013-09-13 17:55:00,75.5,73.3,29.92,NE,46,0.0,0.0,93,0.00,,,0.00,16,Wunderground v.1.15,2013-09-14 03:55:00,
2013-09-13 18:00:00,75.5,73.3,29.92,NE,46,0.0,0.0,93,0.00,,,0.00,12,Wunderground v.1.15,2013-09-14 04:00:00,
2013-09-13 18:05:00,75.4,73.6,29.92,NE,45,0.0,0.0,94,0.00,,,0.00,14,Wunderground v.1.15,2013-09-14 04:05:00,
2013-09-13 18:10:00,75.2,73.4,29.92,NE,45,0.0,0.0,94,0.00,,,0.00,9,Wunderground v.1.15,2013-09-14 04:10:00,
2013-09-13 18:15:00,75.2,73.4,29.92,NE,45,0.0,0.0,94,0.00,,,0.00,7,Wunderground v.1.15,2013-09-14 04:15:00,
2013-09-13 18:20:00,75.1,73.3,29.92,NE,45,0.0,0.0,94,0.00,,,0.00,0,Wunderground v.1.15,2013-09-14 04:20:00,
2013-09-13 18:25:00,75.0,73.2,29.93,NE,45,0.0,0.0,94,0.00,,,0.00,0,Wunderground v.1.15,2013-09-14 04:25:00,
2013-09-13 18:30:00,74.9,73.4,29.93,NE,45,0.0,0.0,95,0.00,,,0.00,0,Wunderground v.1.15,2013-09-14 04:30:00,
2013-09-13 18:40:00,74.7,73.2,29.93,NE,45,0.0,0.0,95,0.00,,,0.00,0,Wunderground v.1.15,2013-09-14 04:40:00,
2013-09-13 18:45:00,74.5,73.0,29.94,NE,45,0.0,0.0,95,0.00,,,0.00,0,Wunderground v.1.15,2013-09-14 04:45:00,
2013-09-13 18:50:00,74.5,73.0,29.93,NE,45,0.0,0.0,95,0.00,,,0.00,0,Wunderground v.1.15,2013-09-14 04:50:00,
2013-09-13 18:55:00,74.4,73.2,29.94,NE,45,0.0,0.0,96,0.00,,,0.00,0,Wunderground v.1.15,2013-09-14 04:55:00,
2013-09-13 19:00:00,74.3,72.8,29.94,NE,45,0.0,0.0,95,0.00,,,0.00,0,Wunderground v.1.15,2013-09-14 05:00:00,
2013-09-13 19:10:00,74.2,73.0,29.94,NE,45,0.0,0.0,96,0.00,,,0.00,0,Wunderground v.1.15,2013-09-14 05:10:00,
2013-09-13 19:15:00,74.1,72.9,29.94,NE,45,0.0,0.0,96,0.00,,,0.00,0,Wunderground v.1.15,2013-09-14 05:15:00,
2013-09-13 19:20:00,74.0,72.8,29.94,NE,45,0.0,0.0,96,0.00,,,0.00,0,Wunderground v.1.15,2013-09-14 05:20:00,
2013-09-13 19:25:00,73.9,72.7,29.94,NE,45,0.0,0.0,96,0.00,,,0.00,0,Wunderground v.1.15,2013-09-14 05:25:00,
2013-09-13 19:30:00,73.7,72.5,29.94,NE,45,0.0,0.0,96,0.00,,,0.00,0,Wunderground v.1.15,2013-09-14 05:30:00,
2013-09-13 19:40:00,73.4,72.2,29.94,NE,36,0.0,0.0,96,0.00,,,0.00,0,Wunderground v.1.15,2013-09-14 05:40:00,
2013-09-13 19:45:00,73.2,72.3,29.94,NE,36,0.0,0.0,97,0.00,,,0.00,0,Wunderground v.1.15,2013-09-14 05:45:00,
2013-09-13 19:55:00,72.9,72.0,29.94,NE,36,0.0,0.0,97,0.00,,,0.00,0,Wunderground v.1.15,2013-09-14 05:55:00,
2013-09-13 20:00:00,72.7,71.8,29.94,NE,36,0.0,0.0,97,0.00,,,0.00,0,Wunderground v.1.15,2013-09-14 06:00:00,
2013-09-13 20:10:00,72.4,71.5,29.95,NE,36,0.0,0.0,97,0.00,,,0.00,0,Wunderground v.1.15,2013-09-14 06:10:00,
2013-09-13 20:15:00,72.2,71.6,29.95,NNE,24,1.0,2.0,98,0.00,,,0.00,0,Wunderground v.1.15,2013-09-14 06:15:00,
2013-09-13 20:20:00,72.0,71.4,29.95,NNE,24,2.0,2.0,98,0.00,,,0.00,0,Wunderground v.1.15,2013-09-14 06:20:00,
2013-09-13 20:25:00,71.9,71.3,29.95,NNE,24,2.0,3.0,98,0.00,,,0.00,0,Wunderground v.1.15,2013-09-14 06:25:00,
2013-09-13 20:30:00,71.7,71.1,29.95,NNE,24,2.0,3.0,98,0.00,,,0.00,0,Wunderground v.1.15,2013-09-14 06:30:00,
2013-09-13 20:35:00,71.6,71.0,29.96,NNE,24,3.0,3.0,98,0.00,,,0.00,0,Wunderground v.1.15,2013-09-14 06:35:00,
2013-09-13 20:40:00,71.5,70.9,29.96,NNE,24,3.0,3.0,98,0.00,,,0.00,0,Wunderground v.1.15,2013-09-14 06:40:00,
2013-09-13 20:50:00,71.4,70.8,29.96,NNE,23,3.0,4.0,98,0.00,,,0.00,0,Wunderground v.1.15,2013-09-14 06:50:00,
2013-09-13 20:55:00,71.3,70.7,29.96,NNE,15,3.0,4.0,98,0.00,,,0.00,0,Wunderground v.1.15,2013-09-14 06:55:00,
2013-09-13 21:00:00,71.2,70.6,29.97,North,360,3.0,3.0,98,0.00,,,0.00,0,Wunderground v.1.15,2013-09-14 07:00:00,
2013-09-13 21:10:00,71.0,70.4,29.97,North,360,3.0,3.0,98,0.00,,,0.00,0,Wunderground v.1.15,2013-09-14 07:10:00,
2013-09-13 21:15:00,70.9,70.3,29.97,North,360,3.0,4.0,98,0.00,,,0.00,0,Wunderground v.1.15,2013-09-14 07:15:00,
2013-09-13 21:25:00,70.8,70.2,29.97,North,350,4.0,4.0,98,0.00,,,0.00,0,Wunderground v.1.15,2013-09-14 07:25:00,
2013-09-13 21:30:00,70.8,70.2,29.97,NW,308,3.0,3.0,98,0.00,,,0.00,0,Wunderground v.1.15,2013-09-14 07:30:00,
2013-09-13 21:35:00,70.8,70.2,29.97,NW,308,4.0,4.0,98,0.00,,,0.00,0,Wunderground v.1.15,2013-09-14 07:35:00,
2013-09-13 21:40:00,70.7,70.1,29.97,NW,308,3.0,4.0,98,0.00,,,0.00,0,Wunderground v.1.15,2013-09-14 07:40:00,
2013-09-13 21:45:00,70.7,70.1,29.97,NW,308,3.0,5.0,98,0.00,,,0.00,0,Wunderground v.1.15,2013-09-14 07:45:00,
2013-09-13 21:50:00,70.7,69.8,29.97,NW,308,3.0,5.0,97,0.00,,,0.00,0,Wunderground v.1.15,2013-09-14 07:50:00,
2013-09-13 21:55:00,70.6,69.7,29.97,NW,307,4.0,5.0,97,0.00,,,0.00,0,Wunderground v.1.15,2013-09-14 07:55:00,
2013-09-13 22:00:00,70.5,69.6,29.97,NW,308,4.0,4.0,97,0.00,,,0.00,0,Wunderground v.1.15,2013-09-14 08:00:00,
2013-09-13 22:10:00,70.3,69.4,29.97,NW,307,4.0,4.0,97,0.00,,,0.00,0,Wunderground v.1.15,2013-09-14 08:10:00,
2013-09-13 22:15:00,70.3,69.1,29.97,NW,307,4.0,4.0,96,0.00,,,0.00,0,Wunderground v.1.15,2013-09-14 08:15:00,
2013-09-13 22:20:00,70.2,69.0,29.97,NW,308,4.0,4.0,96,0.00,,,0.00,0,Wunderground v.1.15,2013-09-14 08:20:00,
2013-09-13 22:30:00,70.0,68.8,29.97,NW,307,4.0,4.0,96,0.00,,,0.00,0,Wunderground v.1.15,2013-09-14 08:30:00,
2013-09-13 22:40:00,69.9,68.7,29.96,NW,307,4.0,4.0,96,0.00,,,0.00,0,Wunderground v.1.15,2013-09-14 08:40:00,
2013-09-13 22:45:00,69.9,68.7,29.96,NW,307,3.0,4.0,96,0.00,,,0.00,0,Wunderground v.1.15,2013-09-14 08:45:00,
2013-09-13 22:50:00,70.0,68.8,29.96,NW,307,3.0,3.0,96,0.00,,,0.00,0,Wunderground v.1.15,2013-09-14 08:50:00,
2013-09-13 22:55:00,70.0,68.5,29.96,NW,307,3.0,3.0,95,0.00,,,0.00,0,Wunderground v.1.15,2013-09-14 08:55:00,
2013-09-13 23:00:00,70.0,68.5,29.96,NW,307,2.0,2.0,95,0.00,,,0.00,0,Wunderground v.1.15,2013-09-14 09:00:00,
2013-09-13 23:10:00,70.0,68.5,29.96,NW,306,3.0,3.0,95,0.00,,,0.00,0,Wunderground v.1.15,2013-09-14 09:10:00,
2013-09-13 23:15:00,70.0,68.5,29.96,NW,306,3.0,3.0,95,0.00,,,0.00,0,Wunderground v.1.15,2013-09-14 09:15:00,
2013-09-13 23:20:00,70.0,68.2,29.96,NW,307,3.0,3.0,94,0.00,,,0.00,0,Wunderground v.1.15,2013-09-14 09:20:00,
2013-09-13 23:25:00,70.0,68.2,29.96,NW,307,3.0,3.0,94,0.00,,,0.00,0,Wunderground v.1.15,2013-09-14 09:25:00,
2013-09-13 23:30:00,69.9,68.1,29.96,NW,307,3.0,4.0,94,0.00,,,0.00,0,Wunderground v.1.15,2013-09-14 09:30:00,
2013-09-13 23:35:00,69.7,67.9,29.96,NW,307,3.0,4.0,94,0.00,,,0.00,0,Wunderground v.1.15,2013-09-14 09:35:00,
2013-09-13 23:45:00,69.3,67.5,29.96,NW,307,1.0,2.0,94,0.00,,,0.00,0,Wunderground v.1.15,2013-09-14 09:45:00,
2013-09-13 23:50:00,69.2,67.4,29.96,NW,307,0.0,0.0,94,0.00,,,0.00,0,Wunderground v.1.15,2013-09-14 09:50:00,